Time;durP1;ratioP1;P1;durP2;ratioP2;P2;SDS_P1;SDS_P2;PMS_P1;PMS_P2;Temp;Humidity;BMP_temperature;BMP_pressure;BME280_temperature;BME280_humidity;BME280_pressure;Samples;Min_cycle;Max_cycle;Signal;HPM_P1;HPM_P2
2023/04/03 00:02:03;;;;;;;1.13;0.40;;;;;;;10.60;47.29;100797.94;4975830;28;20043;-80
2023/04/03 00:04:31;;;;;;;0.47;0.30;;;;;;;10.45;50.44;100805.28;4984742;28;20562;-82
2023/04/03 00:07:00;;;;;;;1.75;0.40;;;;;;;10.30;51.98;100800.47;4982222;28;20054;-84
2023/04/03 00:09:28;;;;;;;0.00;0.00;;;;;;;10.09;52.11;100799.78;4990580;28;20043;-83
2023/04/03 00:11:57;;;;;;;5.07;0.45;;;;;;;9.95;53.33;100804.50;4985942;28;20058;-85
2023/04/03 00:14:25;;;;;;;0.50;0.30;;;;;;;9.84;55.42;100810.19;4979529;28;20420;-85
2023/04/03 00:16:54;;;;;;;1.10;0.38;;;;;;;9.70;58.08;100813.16;4984883;28;20046;-81
2023/04/03 00:19:24;;;;;;;0.75;0.20;;;;;;;9.58;58.98;100816.19;4985206;28;20492;-81
2023/04/03 00:21:53;;;;;;;0.35;0.13;;;;;;;9.40;58.77;100814.72;4981887;28;20056;-80
2023/04/03 00:24:21;;;;;;;0.43;0.13;;;;;;;9.30;59.88;100819.50;4976555;28;20464;-81
2023/04/03 00:27:03;;;;;;;0.08;0.05;;;;;;;9.16;60.00;100816.41;4986167;28;20055;-82
2023/04/03 00:29:32;;;;;;;0.10;0.10;;;;;;;9.04;63.37;100819.44;4958740;28;20047;-82
2023/04/03 00:32:00;;;;;;;1.70;0.60;;;;;;;8.96;63.38;100814.00;4964899;28;20058;-81
2023/04/03 00:34:31;;;;;;;0.30;0.15;;;;;;;8.91;61.80;100824.97;4961752;28;20051;-82
2023/04/03 00:36:59;;;;;;;0.68;0.20;;;;;;;8.82;61.69;100815.22;4946487;28;20520;-82
2023/04/03 00:39:28;;;;;;;0.03;0.00;;;;;;;8.73;63.39;100830.34;4969405;28;20061;-82
2023/04/03 00:41:57;;;;;;;0.35;0.10;;;;;;;8.63;63.95;100823.06;4964347;28;20050;-82
2023/04/03 00:45:03;;;;;;;0.00;0.00;;;;;;;8.57;66.55;100829.75;4956401;28;20535;-82
2023/04/03 00:47:33;;;;;;;0.32;0.17;;;;;;;8.56;67.19;100833.13;4962810;28;20043;-79
2023/04/03 00:50:03;;;;;;;0.13;0.08;;;;;;;8.57;68.30;100824.59;4964942;28;20055;-80
2023/04/03 00:52:33;;;;;;;0.73;0.00;;;;;;;8.49;64.83;100814.78;4961242;28;20121;-80
2023/04/03 00:55:05;;;;;;;0.38;0.15;;;;;;;8.56;66.03;100832.25;4956786;28;20043;-79
2023/04/03 00:57:35;;;;;;;0.13;0.10;;;;;;;8.52;63.13;100830.38;4965891;28;20053;-79
2023/04/03 01:00:09;;;;;;;0.30;0.10;;;;;;;8.45;66.01;100818.06;4968234;28;20511;-81
2023/04/03 01:02:37;;;;;;;0.38;0.13;;;;;;;8.45;67.99;100824.09;4955043;28;20057;-78
2023/04/03 01:05:08;;;;;;;0.20;0.17;;;;;;;8.42;66.66;100813.66;4959214;28;20047;-79
2023/04/03 01:07:37;;;;;;;0.10;0.08;;;;;;;8.42;70.12;100817.94;4970897;28;20050;-79
2023/04/03 01:10:08;;;;;;;0.10;0.10;;;;;;;8.42;66.04;100823.09;4965094;28;20517;-81
2023/04/03 01:12:39;;;;;;;5.82;0.35;;;;;;;8.35;65.64;100825.41;4961905;28;20055;-81
2023/04/03 01:15:09;;;;;;;1.55;0.20;;;;;;;8.30;63.41;100819.19;4963537;28;20047;-79
2023/04/03 01:17:40;;;;;;;0.17;0.10;;;;;;;8.23;61.83;100824.91;4964825;28;20544;-79
2023/04/03 01:20:34;;;;;;;0.35;0.15;;;;;;;8.17;64.29;100817.81;4966688;28;21215;-79
2023/04/03 01:23:14;;;;;;;0.20;0.20;;;;;;;8.15;64.79;100808.25;4959980;28;20141;-80
2023/04/03 01:25:44;;;;;;;0.10;0.10;;;;;;;8.13;66.09;100818.53;4963957;28;20114;-81
2023/04/03 01:28:27;;;;;;;0.10;0.10;;;;;;;8.08;64.16;100804.56;4978783;28;20105;-80
2023/04/03 01:31:03;;;;;;;0.20;0.20;;;;;;;8.09;66.01;100806.31;4990170;28;20495;-80
2023/04/03 01:33:34;;;;;;;0.30;0.30;;;;;;;8.03;66.19;100803.50;4988513;28;20127;-78
2023/04/03 01:36:02;;;;;;;0.45;0.10;;;;;;;7.97;66.30;100806.72;4987075;28;20054;-78
2023/04/03 01:38:31;;;;;;;2.10;0.20;;;;;;;8.00;66.08;100813.69;4981044;28;20112;-80
2023/04/03 01:41:00;;;;;;;1.13;0.20;;;;;;;7.88;64.87;100797.72;4981305;28;20143;-80
2023/04/03 01:43:28;;;;;;;0.20;0.15;;;;;;;7.95;66.55;100815.22;4989927;28;20077;-83
2023/04/03 01:45:57;;;;;;;0.10;0.10;;;;;;;7.81;63.86;100804.34;4989401;28;20061;-82
2023/04/03 01:48:26;;;;;;;0.10;0.00;;;;;;;7.83;66.36;100815.56;4985748;28;20042;-84
2023/04/03 01:50:56;;;;;;;0.10;0.10;;;;;;;7.78;65.44;100818.78;4989527;28;20511;-84
2023/04/03 01:53:24;;;;;;;0.75;0.10;;;;;;;7.73;63.92;100816.88;4983993;28;20046;-85
2023/04/03 01:55:53;;;;;;;0.40;0.15;;;;;;;7.68;62.90;100820.97;4985903;28;20054;-82
2023/04/03 01:58:21;;;;;;;0.52;0.20;;;;;;;7.61;63.15;100826.66;4986504;28;20058;-82
2023/04/03 02:00:50;;;;;;;0.10;0.08;;;;;;;7.53;64.88;100826.31;4986903;28;20053;-82
2023/04/03 02:03:19;;;;;;;0.03;0.03;;;;;;;7.51;62.31;100824.50;4992138;28;20125;-82
2023/04/03 02:05:48;;;;;;;0.17;0.10;;;;;;;7.46;65.81;100836.31;4986862;28;20055;-83
2023/04/03 02:08:19;;;;;;;0.30;0.30;;;;;;;7.41;65.82;100841.25;4989623;28;20077;-83
2023/04/03 02:10:50;;;;;;;1.17;0.30;;;;;;;7.37;62.63;100841.94;4986038;28;20195;-81
2023/04/03 02:13:19;;;;;;;0.73;0.32;;;;;;;7.34;64.59;100836.66;4985826;28;20061;-80
2023/04/03 02:15:48;;;;;;;1.55;0.30;;;;;;;7.32;63.55;100838.28;4975850;28;20113;-82
2023/04/03 02:18:16;;;;;;;0.20;0.10;;;;;;;7.30;65.37;100843.34;4971372;28;20110;-84
2023/04/03 02:20:45;;;;;;;1.52;0.90;;;;;;;7.26;65.45;100844.06;4980333;28;20055;-82
2023/04/03 02:23:14;;;;;;;2.83;0.30;;;;;;;7.25;63.91;100849.13;4985608;28;20118;-84
2023/04/03 02:25:45;;;;;;;0.28;0.10;;;;;;;7.21;65.82;100853.22;4979152;28;20424;-83
2023/04/03 02:28:13;;;;;;;0.75;0.38;;;;;;;7.16;65.37;100849.59;4982217;28;20046;-83
2023/04/03 02:30:42;;;;;;;1.20;0.30;;;;;;;7.15;64.82;100845.25;4990105;28;20065;-83
2023/04/03 02:33:10;;;;;;;0.38;0.20;;;;;;;7.13;64.53;100855.47;4986798;28;20059;-82
2023/04/03 02:35:40;;;;;;;0.10;0.10;;;;;;;7.12;66.71;100857.97;4985884;28;20077;-84
2023/04/03 02:38:08;;;;;;;0.73;0.35;;;;;;;7.09;65.78;100857.84;4991790;28;20076;-77
2023/04/03 02:40:37;;;;;;;0.70;0.40;;;;;;;7.03;65.98;100861.03;4981890;28;20501;-77
2023/04/03 02:43:08;;;;;;;0.45;0.30;;;;;;;7.01;65.20;100859.19;4989766;28;20460;-80
2023/04/03 02:45:36;;;;;;;1.40;0.25;;;;;;;6.98;65.76;100865.06;4981934;28;20128;-77
2023/04/03 02:48:05;;;;;;;1.30;0.45;;;;;;;6.99;66.06;100871.13;4989298;28;20065;-79
2023/04/03 02:50:34;;;;;;;0.10;0.10;;;;;;;6.98;66.91;100864.19;4985411;28;20050;-79
2023/04/03 02:53:02;;;;;;;0.28;0.20;;;;;;;6.84;66.46;100841.28;4985876;28;20058;-78
2023/04/03 02:55:31;;;;;;;0.65;0.15;;;;;;;6.96;66.38;100876.09;4987105;28;20598;-79
2023/04/03 02:58:00;;;;;;;0.15;0.15;;;;;;;6.95;67.09;100874.34;4988592;28;20512;-78
2023/04/03 03:00:30;;;;;;;0.20;0.15;;;;;;;6.91;67.36;100873.31;4986966;28;20050;-79
2023/04/03 03:02:58;;;;;;;0.20;0.15;;;;;;;6.86;68.44;100878.25;4989201;28;20109;-79
2023/04/03 03:05:27;;;;;;;0.80;0.20;;;;;;;6.83;69.57;100879.81;4989190;28;20108;-79
2023/04/03 03:07:56;;;;;;;0.45;0.22;;;;;;;6.80;69.36;100884.78;4986867;28;20046;-79
2023/04/03 03:10:25;;;;;;;3.60;0.20;;;;;;;6.82;67.90;100886.63;4989054;28;20109;-80
2023/04/03 03:12:54;;;;;;;0.35;0.25;;;;;;;6.78;67.79;100889.88;4975065;28;20055;-79
2023/04/03 03:15:22;;;;;;;0.20;0.20;;;;;;;6.77;66.95;100884.66;4986826;28;20060;-79
2023/04/03 03:17:53;;;;;;;0.60;0.30;;;;;;;6.74;67.90;100895.69;4983387;28;20638;-78
2023/04/03 03:20:21;;;;;;;0.70;0.40;;;;;;;6.70;68.37;100893.78;4988951;28;20054;-79
2023/04/03 03:22:50;;;;;;;1.02;0.30;;;;;;;6.68;69.09;100905.69;4986941;28;20661;-78
2023/04/03 03:25:18;;;;;;;0.10;0.10;;;;;;;6.63;68.54;100899.44;4977004;28;20062;-78
2023/04/03 03:27:47;;;;;;;0.10;0.10;;;;;;;6.58;68.16;100903.50;4987565;28;20050;-78
2023/04/03 03:30:16;;;;;;;1.52;0.38;;;;;;;6.55;69.71;100905.91;4984076;28;20397;-78
2023/04/03 03:32:44;;;;;;;0.20;0.20;;;;;;;6.53;69.99;100912.66;4985815;28;20062;-78
2023/04/03 03:35:14;;;;;;;3.55;0.30;;;;;;;6.47;69.77;100911.56;4981325;28;20188;-79
2023/04/03 03:37:43;;;;;;;0.80;0.52;;;;;;;6.39;70.17;100917.13;4982353;28;20050;-79
2023/04/03 03:40:12;;;;;;;0.75;0.30;;;;;;;6.33;70.99;100922.84;4983848;28;20074;-78
2023/04/03 03:42:41;;;;;;;1.67;0.30;;;;;;;6.27;71.32;100928.56;4979469;28;20058;-79
2023/04/03 03:45:11;;;;;;;0.47;0.32;;;;;;;6.23;71.53;100936.94;4983320;28;20137;-81
2023/04/03 03:47:39;;;;;;;0.40;0.20;;;;;;;6.19;70.75;100929.00;4985608;28;20046;-82
2023/04/03 03:50:09;;;;;;;0.13;0.13;;;;;;;6.17;70.51;100940.91;4984905;28;20053;-78
2023/04/03 03:52:39;;;;;;;0.90;0.20;;;;;;;6.17;71.07;100931.50;4985502;28;20104;-80
2023/04/03 03:55:08;;;;;;;0.20;0.20;;;;;;;6.20;71.68;100935.91;4978445;28;20058;-79
2023/04/03 03:57:37;;;;;;;2.22;0.35;;;;;;;6.19;71.01;100939.28;4988017;28;20108;-78
2023/04/03 04:00:06;;;;;;;0.50;0.20;;;;;;;6.18;70.86;100947.78;4984683;28;20050;-79
2023/04/03 04:02:35;;;;;;;1.20;0.40;;;;;;;6.16;71.42;100949.38;4980735;28;20042;-81
2023/04/03 04:05:04;;;;;;;0.55;0.30;;;;;;;6.11;72.19;100948.28;4983678;28;20050;-81
2023/04/03 04:07:32;;;;;;;0.10;0.10;;;;;;;6.12;73.70;100955.19;4986365;28;20102;-80
2023/04/03 04:10:03;;;;;;;0.30;0.20;;;;;;;6.11;74.42;100956.00;4984424;28;20101;-81
2023/04/03 04:12:31;;;;;;;1.25;0.60;;;;;;;6.07;73.51;100957.53;4986929;28;20054;-81
2023/04/03 04:15:00;;;;;;;2.25;0.50;;;;;;;6.05;74.38;100962.59;4981231;28;20802;-81
2023/04/03 04:17:28;;;;;;;0.93;0.65;;;;;;;5.94;73.29;100948.31;4986161;28;20047;-79
2023/04/03 04:19:57;;;;;;;0.45;0.40;;;;;;;5.95;74.15;100960.34;4985539;28;20045;-79
2023/04/03 04:22:26;;;;;;;1.65;0.63;;;;;;;5.93;74.35;100956.78;4982312;28;20157;-79
2023/04/03 04:24:54;;;;;;;0.52;0.30;;;;;;;5.90;74.77;100966.91;4985277;28;20053;-78
2023/04/03 04:27:25;;;;;;;0.55;0.32;;;;;;;5.90;75.81;100966.03;4980908;28;20058;-79
2023/04/03 04:29:53;;;;;;;0.03;0.03;;;;;;;5.91;74.80;100971.25;4986306;28;20504;-78
2023/04/03 04:32:22;;;;;;;0.90;0.10;;;;;;;5.88;75.05;100969.38;4983508;28;20098;-78
2023/04/03 04:34:50;;;;;;;0.22;0.20;;;;;;;5.91;74.97;100973.81;4990357;28;20105;-78
2023/04/03 04:37:19;;;;;;;0.80;0.63;;;;;;;5.92;75.63;100977.25;4990107;28;20054;-80
2023/04/03 04:39:47;;;;;;;1.05;0.63;;;;;;;5.90;75.32;100974.59;4988834;28;20058;-80
2023/04/03 04:42:16;;;;;;;1.45;0.20;;;;;;;5.86;75.96;100964.97;4987328;28;20586;-80
2023/04/03 04:44:46;;;;;;;0.40;0.30;;;;;;;5.78;76.66;100956.88;4988912;28;20053;-79
2023/04/03 04:47:15;;;;;;;9.02;3.35;;;;;;;5.87;77.07;100983.03;4987757;28;20682;-80
2023/04/03 04:49:43;;;;;;;4.55;1.95;;;;;;;5.86;77.45;100986.41;4989568;28;20046;-80
2023/04/03 04:52:12;;;;;;;4.68;1.77;;;;;;;5.87;77.35;100987.28;4980281;28;20058;-80
2023/04/03 04:54:41;;;;;;;1.20;0.95;;;;;;;5.85;77.39;100988.91;4987951;28;20081;-80
2023/04/03 04:57:10;;;;;;;0.57;0.32;;;;;;;5.89;77.29;100990.81;4982809;28;20049;-78
2023/04/03 04:59:39;;;;;;;0.63;0.47;;;;;;;5.87;78.01;100992.44;4987775;28;20054;-79
2023/04/03 05:02:09;;;;;;;3.22;0.73;;;;;;;5.84;79.15;100988.03;4988970;28;20042;-80
2023/04/03 05:04:37;;;;;;;0.60;0.35;;;;;;;5.83;82.48;100993.06;4987165;28;20066;-81
2023/04/03 05:07:06;;;;;;;0.70;0.50;;;;;;;5.75;82.06;100976.34;4989549;28;20062;-79
2023/04/03 05:09:34;;;;;;;0.80;0.30;;;;;;;5.80;80.93;100995.47;4990636;28;20054;-79
2023/04/03 05:12:03;;;;;;;0.52;0.40;;;;;;;5.73;81.21;100990.84;4986327;28;20046;-79
2023/04/03 05:14:32;;;;;;;0.95;0.40;;;;;;;5.64;81.95;100989.53;4986872;28;20053;-79
2023/04/03 05:17:00;;;;;;;2.85;0.40;;;;;;;5.57;79.78;100994.28;4987442;28;20062;-80
2023/04/03 05:19:30;;;;;;;0.95;0.60;;;;;;;5.38;79.10;100984.69;4982630;28;20138;-78
2023/04/03 05:21:59;;;;;;;1.13;0.50;;;;;;;5.36;80.69;100991.41;4989536;28;20058;-80
2023/04/03 05:24:27;;;;;;;1.23;0.43;;;;;;;5.22;84.73;100986.44;4987110;28;20046;-79
2023/04/03 05:26:56;;;;;;;1.15;0.50;;;;;;;5.24;86.58;100997.66;4986118;28;20058;-78
2023/04/03 05:29:25;;;;;;;1.30;0.40;;;;;;;5.25;86.23;101009.69;4982951;28;20050;-80
2023/04/03 05:31:53;;;;;;;0.63;0.20;;;;;;;5.29;85.54;101004.72;4993832;28;20042;-81
2023/04/03 05:34:22;;;;;;;2.05;0.30;;;;;;;5.31;85.82;101011.69;4989445;28;20058;-81
2023/04/03 05:36:52;;;;;;;4.35;0.35;;;;;;;5.19;87.19;100991.38;4988109;28;20042;-82
2023/04/03 05:39:20;;;;;;;0.45;0.45;;;;;;;5.23;86.10;101005.25;4986337;28;20125;-82
2023/04/03 05:41:49;;;;;;;1.05;0.68;;;;;;;5.17;87.34;101008.34;4988891;28;20046;-81
2023/04/03 05:44:17;;;;;;;0.70;0.50;;;;;;;5.06;88.60;100986.38;4989061;28;20739;-81
2023/04/03 05:46:46;;;;;;;3.55;0.52;;;;;;;5.14;89.58;101005.63;4989480;28;20598;-81
2023/04/03 05:49:14;;;;;;;0.30;0.20;;;;;;;5.16;90.45;101009.19;4982836;28;20093;-82
2023/04/03 05:51:44;;;;;;;1.50;0.60;;;;;;;5.20;90.58;101011.13;4988660;28;20042;-81
2023/04/03 05:54:19;;;;;;;2.65;1.17;;;;;;;5.21;90.17;101005.19;4982913;28;20087;-82
2023/04/03 05:56:47;;;;;;;2.97;0.43;;;;;;;5.16;90.10;101004.03;4988180;28;20058;-81
2023/04/03 05:59:16;;;;;;;0.60;0.40;;;;;;;5.12;91.65;101011.47;4984302;28;20081;-82
2023/04/03 06:01:44;;;;;;;0.80;0.52;;;;;;;5.04;92.13;101018.75;4982583;28;20054;-82
2023/04/03 06:04:13;;;;;;;4.20;0.38;;;;;;;5.00;92.76;101027.06;4989436;28;20061;-81
2023/04/03 06:06:51;;;;;;;1.35;0.63;;;;;;;4.96;92.72;101030.25;4983076;28;20124;-81
2023/04/03 06:09:23;;;;;;;0.55;0.35;;;;;;;4.96;92.69;101032.81;4984319;28;20054;-81
2023/04/03 06:11:51;;;;;;;0.30;0.25;;;;;;;4.97;92.84;101032.00;4985547;28;20121;-82
2023/04/03 06:14:20;;;;;;;0.35;0.22;;;;;;;4.90;93.10;101024.78;4985273;28;20054;-81
2023/04/03 06:16:49;;;;;;;1.45;0.45;;;;;;;4.83;93.18;101024.44;4989863;28;20124;-81
2023/04/03 06:19:17;;;;;;;0.40;0.20;;;;;;;4.76;93.64;101029.13;4989137;28;20108;-82
2023/04/03 06:21:46;;;;;;;1.00;0.43;;;;;;;4.67;93.92;101021.78;4985181;28;20496;-81
2023/04/03 06:24:17;;;;;;;0.52;0.22;;;;;;;4.65;94.07;101030.19;4986066;28;20085;-81
2023/04/03 06:26:48;;;;;;;0.70;0.40;;;;;;;4.60;94.05;101022.22;4988147;28;20058;-81
2023/04/03 06:29:17;;;;;;;1.05;0.52;;;;;;;4.66;93.84;101030.28;4988053;28;20057;-80
2023/04/03 06:31:45;;;;;;;0.57;0.35;;;;;;;4.66;94.25;101021.72;4988249;28;20484;-81
2023/04/03 06:34:15;;;;;;;0.88;0.40;;;;;;;4.67;93.66;101033.72;4988051;28;20571;-81
2023/04/03 06:36:44;;;;;;;2.53;0.45;;;;;;;4.61;94.32;101029.13;4988323;28;20046;-80
2023/04/03 06:39:16;;;;;;;0.75;0.35;;;;;;;4.55;94.96;101029.66;4981906;28;20054;-81
2023/04/03 06:41:47;;;;;;;0.73;0.40;;;;;;;4.53;95.84;101030.34;4989068;28;20074;-81
2023/04/03 06:44:15;;;;;;;1.17;0.15;;;;;;;4.43;96.30;101016.13;4979882;28;20555;-81
2023/04/03 06:46:46;;;;;;;0.70;0.40;;;;;;;4.56;95.93;101038.25;4986026;28;20046;-81
2023/04/03 06:49:14;;;;;;;0.90;0.38;;;;;;;4.54;95.66;101035.59;4987244;28;20105;-79
2023/04/03 06:51:43;;;;;;;0.77;0.40;;;;;;;4.56;95.05;101039.13;4988767;28;20046;-79
2023/04/03 06:54:11;;;;;;;1.27;0.43;;;;;;;4.52;95.39;101044.84;4987661;28;20043;-79
2023/04/03 06:56:40;;;;;;;1.13;0.70;;;;;;;4.47;95.99;101047.97;4988796;28;20054;-79
2023/04/03 06:59:12;;;;;;;2.00;0.38;;;;;;;4.44;97.29;101050.31;4985309;28;20097;-79
2023/04/03 07:01:41;;;;;;;3.85;0.75;;;;;;;4.45;97.67;101055.53;4987669;28;20053;-80
2023/04/03 07:04:10;;;;;;;0.60;0.50;;;;;;;4.37;97.53;101032.03;4979609;28;20607;-80
2023/04/03 07:06:38;;;;;;;3.05;0.68;;;;;;;4.29;97.37;101033.25;4982156;28;20550;-79
2023/04/03 07:09:07;;;;;;;0.45;0.30;;;;;;;4.37;98.16;101052.50;4987689;28;20050;-80
2023/04/03 07:11:36;;;;;;;2.40;0.63;;;;;;;4.40;98.11;101059.53;4982093;28;20503;-80
2023/04/03 07:14:05;;;;;;;0.63;0.43;;;;;;;4.36;97.70;101050.75;4983991;28;20113;-81
2023/04/03 07:16:36;;;;;;;0.95;0.30;;;;;;;4.37;97.09;101057.63;4988173;28;20061;-81
2023/04/03 07:19:05;;;;;;;0.28;0.28;;;;;;;4.35;97.24;101054.13;4984430;28;20046;-80
2023/04/03 07:21:34;;;;;;;5.72;0.35;;;;;;;4.36;97.89;101050.75;4981761;28;20058;-80
2023/04/03 07:24:02;;;;;;;1.17;0.60;;;;;;;4.37;97.71;101055.06;4987220;28;20045;-80
2023/04/03 07:26:31;;;;;;;1.35;0.40;;;;;;;4.36;97.35;101045.63;4987476;28;20548;-80
2023/04/03 07:28:59;;;;;;;0.17;0.17;;;;;;;4.37;97.63;101049.94;4988759;28;20061;-80
2023/04/03 07:31:28;;;;;;;0.38;0.38;;;;;;;4.38;97.86;101051.75;4989799;28;20112;-81
2023/04/03 07:33:58;;;;;;;0.40;0.32;;;;;;;4.36;98.19;101061.00;4977963;28;20050;-79
2023/04/03 07:36:27;;;;;;;0.38;0.30;;;;;;;4.38;98.03;101067.09;4987680;28;20404;-82
2023/04/03 07:38:56;;;;;;;0.45;0.40;;;;;;;4.41;96.86;101064.72;4995679;28;20125;-81
2023/04/03 07:41:24;;;;;;;0.73;0.30;;;;;;;4.36;96.85;101070.38;4981651;28;20054;-81
2023/04/03 07:43:53;;;;;;;0.45;0.20;;;;;;;4.31;96.06;101072.66;4978708;28;20054;-81
2023/04/03 07:46:22;;;;;;;0.45;0.25;;;;;;;4.28;96.44;101082.72;4981331;28;20064;-81
2023/04/03 07:48:50;;;;;;;0.50;0.43;;;;;;;4.27;96.39;101080.94;4987331;28;20105;-81
2023/04/03 07:51:20;;;;;;;1.75;0.38;;;;;;;4.24;95.60;101080.78;4984762;28;20055;-81
2023/04/03 07:53:49;;;;;;;0.50;0.20;;;;;;;4.18;96.37;101080.41;4980858;28;20626;-82
2023/04/03 07:56:18;;;;;;;0.30;0.30;;;;;;;4.15;96.81;101080.22;4985225;28;20141;-82
2023/04/03 07:58:46;;;;;;;1.55;0.30;;;;;;;4.07;97.11;101084.00;4985828;28;20046;-83
2023/04/03 08:01:15;;;;;;;1.13;0.32;;;;;;;3.94;99.16;101075.56;4986661;28;20142;-82
2023/04/03 08:03:43;;;;;;;1.67;0.20;;;;;;;3.95;99.67;101090.13;4978634;28;20125;-81
2023/04/03 08:06:13;;;;;;;0.55;0.30;;;;;;;3.93;99.42;101094.25;4978645;28;20055;-82
2023/04/03 08:08:43;;;;;;;0.95;0.20;;;;;;;3.89;99.67;101094.84;4986658;28;20066;-81
2023/04/03 08:11:13;;;;;;;0.20;0.20;;;;;;;3.85;99.77;101095.50;4979512;28;20042;-80
2023/04/03 08:13:43;;;;;;;0.30;0.20;;;;;;;3.81;98.83;101090.97;4981287;28;20057;-80
2023/04/03 08:16:13;;;;;;;1.95;0.25;;;;;;;3.90;97.97;101111.13;4978982;28;20081;-79
2023/04/03 08:18:48;;;;;;;1.73;0.50;;;;;;;3.91;98.52;101111.19;4984304;28;20061;-80
2023/04/03 08:21:16;;;;;;;0.85;0.40;;;;;;;3.88;97.24;101099.91;4978047;28;20050;-80
2023/04/03 08:23:49;;;;;;;2.13;0.52;;;;;;;3.93;97.72;101108.75;4981270;28;20038;-80
2023/04/03 08:26:20;;;;;;;0.28;0.20;;;;;;;3.92;98.37;101107.88;4990244;28;20046;-80
2023/04/03 08:28:48;;;;;;;1.10;0.45;;;;;;;3.92;98.66;101107.00;4989493;28;20058;-79
2023/04/03 08:31:19;;;;;;;1.10;0.70;;;;;;;3.94;99.17;101107.94;4988474;28;20061;-79
2023/04/03 08:33:49;;;;;;;0.85;0.38;;;;;;;3.93;98.82;101109.63;4986656;28;20057;-80
2023/04/03 08:36:21;;;;;;;1.10;0.43;;;;;;;3.92;99.47;101104.44;4978768;28;21007;-79
2023/04/03 08:38:51;;;;;;;1.17;0.52;;;;;;;3.92;99.57;101112.13;4985948;28;20496;-79
2023/04/03 08:41:30;;;;;;;4.32;0.50;;;;;;;3.88;100.00;101113.59;4986524;28;20050;-79
2023/04/03 08:44:10;;;;;;;0.73;0.52;;;;;;;3.82;100.00;101113.19;4979805;28;20149;-79
2023/04/03 08:46:53;;;;;;;0.70;0.30;;;;;;;3.76;100.00;101110.28;4978562;28;20142;-79
2023/04/03 08:49:28;;;;;;;0.60;0.40;;;;;;;3.74;100.00;101111.84;4986828;28;20499;-79
2023/04/03 08:51:58;;;;;;;0.95;0.30;;;;;;;3.72;100.00;101121.09;4980395;28;20050;-79
2023/04/03 08:54:34;;;;;;;2.30;0.60;;;;;;;3.74;100.00;101124.66;4985719;28;20054;-79
2023/04/03 08:57:11;;;;;;;0.60;0.20;;;;;;;3.81;100.00;101121.69;4987397;28;20117;-79
2023/04/03 08:59:42;;;;;;;1.17;0.43;;;;;;;3.79;100.00;101118.13;4978412;28;20070;-79
2023/04/03 09:02:26;;;;;;;2.28;0.30;;;;;;;3.77;100.00;101119.72;4981345;28;20046;-80
2023/04/03 09:04:55;;;;;;;0.32;0.20;;;;;;;3.77;100.00;101112.03;4977384;28;20105;-80
2023/04/03 09:07:33;;;;;;;0.43;0.30;;;;;;;3.79;100.00;101113.00;4984830;28;20120;-80
2023/04/03 09:10:04;;;;;;;0.82;0.32;;;;;;;3.82;100.00;101120.88;4985345;28;20049;-80
2023/04/03 09:12:39;;;;;;;0.30;0.30;;;;;;;3.86;100.00;101121.97;4986773;28;20054;-80
2023/04/03 09:15:17;;;;;;;1.42;0.60;;;;;;;3.91;100.00;101120.56;4983425;28;20048;-80
2023/04/03 09:17:58;;;;;;;0.55;0.20;;;;;;;3.89;100.00;101117.91;4981468;28;20074;-80
2023/04/03 09:20:35;;;;;;;0.40;0.20;;;;;;;3.86;100.00;101121.97;4986307;28;20562;-80
2023/04/03 09:23:07;;;;;;;0.80;0.30;;;;;;;3.86;100.00;101121.97;4989108;28;20046;-78
2023/04/03 09:25:40;;;;;;;2.13;0.40;;;;;;;3.87;100.00;101124.63;4984650;28;20047;-79
2023/04/03 09:28:09;;;;;;;;;;;;;;;3.91;100.00;101124.00;4983899;28;20050;-80
2023/04/03 09:30:39;;;;;;;1.48;0.40;;;;;;;3.93;100.00;101126.66;4992157;28;19922;-80
2023/04/03 09:33:07;;;;;;;0.25;0.22;;;;;;;3.96;100.00;101125.19;4984176;28;20133;-80
2023/04/03 09:35:38;;;;;;;0.30;0.20;;;;;;;3.96;99.53;101121.72;4984373;28;20536;-80
2023/04/03 09:38:19;;;;;;;0.57;0.30;;;;;;;3.95;100.00;101128.53;4990838;28;20053;-80
2023/04/03 09:40:51;;;;;;;1.20;0.25;;;;;;;3.97;100.00;101126.94;4986549;28;20069;-80
2023/04/03 09:43:25;;;;;;;0.43;0.30;;;;;;;3.98;100.00;101128.72;4986795;28;20055;-79
2023/04/03 09:45:55;;;;;;;1.85;0.50;;;;;;;4.02;100.00;101128.91;4986264;28;20120;-80
2023/04/03 09:48:24;;;;;;;0.43;0.38;;;;;;;4.00;100.00;101136.50;4986125;28;20149;-80
2023/04/03 09:50:59;;;;;;;0.30;0.20;;;;;;;3.95;100.00;101125.97;4987313;28;20042;-81
2023/04/03 09:53:35;;;;;;;0.57;0.28;;;;;;;4.04;100.00;101138.47;4984341;28;20046;-80
2023/04/03 09:56:11;;;;;;;0.30;0.20;;;;;;;4.03;100.00;101135.78;4985975;28;20051;-78
2023/04/03 09:58:41;;;;;;;0.43;0.20;;;;;;;4.06;100.00;101141.13;4987429;28;20042;-80
2023/04/03 10:01:24;;;;;;;0.38;0.20;;;;;;;4.07;100.00;101133.53;4987717;28;20201;-80
2023/04/03 10:04:05;;;;;;;;;;;;;;;4.08;100.00;101132.75;4987376;28;20117;-80
2023/04/03 10:06:36;;;;;;;0.17;0.17;;;;;;;4.05;100.00;101134.22;4985711;28;20435;-79
2023/04/03 10:09:08;;;;;;;0.80;0.35;;;;;;;3.97;100.00;101133.75;4989309;28;20086;-79
2023/04/03 10:11:39;;;;;;;0.73;0.32;;;;;;;3.91;100.00;101131.69;4985302;28;20101;-78
2023/04/03 10:14:18;;;;;;;0.30;0.13;;;;;;;3.87;100.00;101127.19;4986135;28;20069;-79
2023/04/03 10:16:54;;;;;;;3.33;0.60;;;;;;;3.88;100.00;101122.94;4986378;28;20121;-79
2023/04/03 10:19:43;;;;;;;0.57;0.38;;;;;;;3.81;100.00;101114.00;4988008;28;20050;-78
2023/04/03 10:22:26;;;;;;;1.10;0.40;;;;;;;3.75;100.00;101114.47;4985969;28;20192;-79
2023/04/03 10:25:04;;;;;;;0.20;0.10;;;;;;;3.70;100.00;101126.13;4984295;28;20503;-80
2023/04/03 10:27:44;;;;;;;0.32;0.28;;;;;;;3.72;100.00;101128.78;4984324;28;20057;-81
2023/04/03 10:30:31;;;;;;;4.05;2.15;;;;;;;3.76;100.00;101135.88;4984077;28;20059;-80
2023/04/03 10:33:27;;;;;;;1.90;1.05;;;;;;;3.76;100.00;101135.88;4981891;28;20053;-81
2023/04/03 10:36:12;;;;;;;0.22;0.22;;;;;;;3.77;100.00;101140.19;4984790;28;20070;-81
2023/04/03 10:38:50;;;;;;;0.40;0.25;;;;;;;3.78;100.00;101134.28;4981851;28;20046;-80
2023/04/03 10:41:25;;;;;;;0.30;0.20;;;;;;;3.78;100.00;101132.63;4980739;28;20054;-80
2023/04/03 10:44:04;;;;;;;0.30;0.20;;;;;;;3.78;100.00;101124.06;4987533;28;20139;-78
2023/04/03 10:46:40;;;;;;;0.20;0.20;;;;;;;3.75;100.00;101126.41;4987798;28;20057;-79
2023/04/03 10:49:25;;;;;;;0.55;0.30;;;;;;;3.70;100.00;101121.00;4990195;28;20051;-78
2023/04/03 10:52:00;;;;;;;0.70;0.32;;;;;;;3.68;100.00;101131.94;4985908;28;20038;-79
2023/04/03 10:54:37;;;;;;;0.10;0.10;;;;;;;3.69;100.00;101133.72;4986166;28;20132;-79
2023/04/03 10:57:08;;;;;;;0.82;0.22;;;;;;;3.72;100.00;101131.34;4982595;28;20686;-79
2023/04/03 10:59:40;;;;;;;0.73;0.30;;;;;;;3.70;100.00;101126.13;4983512;28;20136;-79
2023/04/03 11:02:18;;;;;;;0.40;0.20;;;;;;;3.67;100.00;101137.84;4988038;28;20042;-79
2023/04/03 11:04:52;;;;;;;0.20;0.13;;;;;;;3.67;100.00;101145.53;4987378;28;20054;-80
2023/04/03 11:07:23;;;;;;;0.43;0.43;;;;;;;3.70;100.00;101141.47;4985389;28;20438;-80
2023/04/03 11:09:55;;;;;;;0.30;0.20;;;;;;;3.75;100.00;101149.44;4983745;28;20042;-80
2023/04/03 11:12:28;;;;;;;1.27;0.57;;;;;;;3.77;100.00;101147.88;4985607;28;20054;-80
2023/04/03 11:14:59;;;;;;;0.20;0.17;;;;;;;3.80;100.00;101152.28;4983982;28;20519;-80
2023/04/03 11:17:35;;;;;;;0.10;0.10;;;;;;;3.84;100.00;101150.00;4986288;28;20050;-79
2023/04/03 11:20:12;;;;;;;0.32;0.20;;;;;;;3.82;100.00;101146.47;4984431;28;20042;-79
2023/04/03 11:22:45;;;;;;;0.68;0.40;;;;;;;3.71;100.00;101130.47;4979818;28;20050;-80
2023/04/03 11:25:22;;;;;;;0.60;0.55;;;;;;;3.84;100.00;101139.78;4987228;28;20062;-79
2023/04/03 11:27:56;;;;;;;0.55;0.50;;;;;;;3.82;100.00;101133.66;4983493;28;20136;-80
2023/04/03 11:30:31;;;;;;;0.17;0.17;;;;;;;3.74;100.00;101137.44;4981392;28;20376;-79
2023/04/03 11:33:26;;;;;;;0.57;0.20;;;;;;;3.68;100.00;101148.16;4981404;28;20050;-81
2023/04/03 11:35:59;;;;;;;0.30;0.20;;;;;;;3.69;100.00;101149.06;4982052;28;20483;-80
2023/04/03 11:38:34;;;;;;;0.38;0.30;;;;;;;3.70;100.00;101151.72;4984909;28;20085;-81
2023/04/03 11:41:04;;;;;;;0.57;0.20;;;;;;;3.73;100.00;101153.56;4974970;28;20629;-81
2023/04/03 11:43:34;;;;;;;0.15;0.10;;;;;;;3.78;100.00;101159.88;4987022;28;20074;-80
2023/04/03 11:46:06;;;;;;;0.30;0.20;;;;;;;3.78;100.00;101165.88;4983042;28;20527;-80
2023/04/03 11:48:55;;;;;;;2.42;0.52;;;;;;;3.78;100.00;101155.66;4986374;28;20061;-80
2023/04/03 11:51:42;;;;;;;0.30;0.30;;;;;;;3.78;100.00;101154.78;4983418;28;20114;-81